Time;durP1;ratioP1;P1;durP2;ratioP2;P2;SDS_P1;SDS_P2;PMS_P1;PMS_P2;Temp;Humidity;BMP_temperature;BMP_pressure;BME280_temperature;BME280_humidity;BME280_pressure;Samples;Min_cycle;Max_cycle;Signal;HPM_P1;HPM_P2
2024/01/20 00:01:24;;;;;;;;;33.50;29.00;;;;;10.47;39.96;102466.13;5034099;28;45295;-73
2024/01/20 00:03:50;;;;;;;;;30.75;25.25;;;;;10.51;40.33;102459.81;5034109;28;45318;-72
2024/01/20 00:06:15;;;;;;;;;22.75;22.75;;;;;10.49;39.99;102469.69;5042132;28;45465;-72
2024/01/20 00:08:40;;;;;;;;;27.00;25.50;;;;;10.35;39.96;102452.97;5039031;28;52418;-72
2024/01/20 00:11:06;;;;;;;;;24.00;21.00;;;;;10.23;40.50;102456.72;5034221;28;45533;-71
2024/01/20 00:13:31;;;;;;;;;29.50;25.75;;;;;10.44;40.43;102461.75;5033740;28;45305;-71
2024/01/20 00:15:56;;;;;;;;;29.50;26.75;;;;;10.35;40.70;102461.00;5033659;28;46253;-71
2024/01/20 00:18:21;;;;;;;;;26.25;23.75;;;;;10.36;40.45;102468.16;5033760;28;45369;-72
2024/01/20 00:20:47;;;;;;;;;33.75;23.25;;;;;10.41;40.45;102469.81;5034224;28;45423;-71
2024/01/20 00:23:13;;;;;;;;;28.50;26.75;;;;;10.44;40.48;102468.91;5033225;28;54940;-74
2024/01/20 00:25:40;;;;;;;;;39.00;29.00;;;;;10.45;40.00;102465.31;5033799;28;46520;-71
2024/01/20 00:28:05;;;;;;;;;28.50;25.75;;;;;10.44;39.99;102467.09;5033705;28;45281;-72
2024/01/20 05:31:48;;;;;;;;;25.33;20.33;;;;;8.35;41.83;102580.34;5038966;27;45393;-75
2024/01/20 05:34:14;;;;;;;;;21.00;15.33;;;;;8.29;41.98;102570.56;5036291;28;45362;-71
2024/01/20 05:36:39;;;;;;;;;22.00;20.00;;;;;8.34;41.43;102565.22;5034597;28;45351;-71
2024/01/20 05:39:04;;;;;;;;;25.33;24.00;;;;;8.39;41.59;102568.75;5027067;28;63163;-72
2024/01/20 05:41:30;;;;;;;;;29.00;21.67;;;;;8.36;41.67;102568.78;5025367;28;45482;-73
2024/01/20 05:43:55;;;;;;;;;23.00;21.33;;;;;8.30;41.83;102560.78;5036178;28;45730;-74
2024/01/20 05:46:20;;;;;;;;;28.33;23.67;;;;;8.22;42.00;102560.84;5035867;28;45461;-71
2024/01/20 05:48:46;;;;;;;;;28.33;20.33;;;;;8.15;41.99;102552.88;5036006;28;45525;-72
2024/01/20 05:51:11;;;;;;;;;29.00;20.33;;;;;8.23;42.01;102561.72;5035130;28;46099;-71
2024/01/20 05:53:36;;;;;;;;;29.67;22.00;;;;;8.19;41.87;102566.19;5034126;28;58485;-73
2024/01/20 05:56:02;;;;;;;;;30.33;20.00;;;;;8.24;42.22;102575.06;5035091;28;46408;-71
2024/01/20 05:58:27;;;;;;;;;17.33;15.67;;;;;8.24;41.53;102582.22;5017490;28;46139;-71
2024/01/20 06:00:52;;;;;;;;;30.33;26.00;;;;;8.21;41.90;102576.88;5035405;28;45310;-72
2024/01/20 06:03:18;;;;;;;;;30.33;20.33;;;;;8.35;41.96;102581.25;5035810;28;45347;-71
2024/01/20 06:05:43;;;;;;;;;27.67;21.67;;;;;8.23;42.09;102578.66;5035687;28;45319;-72
2024/01/20 06:08:09;;;;;;;;;21.33;21.33;;;;;8.23;42.19;102577.75;5035404;28;45469;-70
2024/01/20 06:10:34;;;;;;;;;34.00;22.33;;;;;8.25;42.07;102573.28;5035871;28;45199;-72
2024/01/20 06:12:59;;;;;;;;;17.33;17.33;;;;;8.09;42.05;102577.81;5035527;28;53009;-71
2024/01/20 06:15:24;;;;;;;;;24.67;21.67;;;;;8.08;42.43;102576.06;5035188;28;45232;-70
2024/01/20 06:17:50;;;;;;;;;26.67;23.67;;;;;8.10;42.24;102568.03;5035615;28;45362;-73
2024/01/20 06:20:15;;;;;;;;;26.33;21.67;;;;;8.17;42.56;102570.66;5035375;28;46697;-72
2024/01/20 06:22:41;;;;;;;;;26.67;20.00;;;;;8.18;42.43;102571.53;5035531;28;45342;-72
2024/01/20 06:25:07;;;;;;;;;29.33;25.33;;;;;8.21;42.49;102579.53;5001004;28;45457;-72
2024/01/20 06:27:32;;;;;;;;;25.00;21.00;;;;;8.22;42.17;102573.31;5038745;28;45343;-71
2024/01/20 06:29:58;;;;;;;;;26.00;24.00;;;;;8.27;42.15;102569.69;5034926;28;46146;-79
2024/01/20 06:32:23;;;;;;;;;22.33;20.33;;;;;8.23;42.18;102553.72;5035181;28;45490;-78
2024/01/20 06:34:49;;;;;;;;;32.67;28.33;;;;;8.38;41.99;102583.00;5036266;28;45425;-79
2024/01/20 06:37:14;;;;;;;;;28.33;21.00;;;;;8.44;41.98;102588.31;5011768;28;45445;-77
2024/01/20 06:39:41;;;;;;;;;27.50;24.25;;;;;8.18;41.68;102552.84;5032798;28;45573;-76
2024/01/20 06:42:07;;;;;;;;;33.67;23.33;;;;;8.14;41.95;102554.66;5026401;28;45259;-75
2024/01/20 06:44:33;;;;;;;;;24.00;22.67;;;;;8.34;42.47;102586.59;5035884;28;45360;-72
2024/01/20 06:46:58;;;;;;;;;28.00;20.00;;;;;8.40;41.89;102594.59;5035172;28;45320;-72
2024/01/20 06:49:23;;;;;;;;;43.33;34.00;;;;;8.35;42.04;102588.38;5034581;28;52417;-73
2024/01/20 06:51:49;;;;;;;;;21.00;17.33;;;;;8.41;42.18;102596.38;5035074;28;48471;-74
2024/01/20 06:54:14;;;;;;;;;20.33;18.67;;;;;8.42;42.22;102600.78;5035035;28;45223;-76
2024/01/20 06:56:39;;;;;;;;;26.33;23.00;;;;;8.48;41.60;102602.56;5035154;28;45372;-75
2024/01/20 06:59:04;;;;;;;;;28.33;27.00;;;;;8.21;42.86;102608.94;5035147;28;45376;-79
2024/01/20 07:01:30;;;;;;;;;30.67;28.67;;;;;8.18;42.55;102603.59;5016911;28;45270;-76
2024/01/20 07:03:56;;;;;;;;;30.00;25.33;;;;;7.95;42.64;102596.63;5037275;28;46380;-76
2024/01/20 07:06:23;;;;;;;;;25.67;24.33;;;;;8.00;42.84;102628.63;5046622;28;45522;-80
2024/01/20 07:08:49;;;;;;;;;30.67;26.67;;;;;7.87;42.84;102619.81;5034957;28;46026;-75
2024/01/20 07:11:14;;;;;;;;;27.00;24.67;;;;;7.90;42.65;102622.47;5034146;28;45422;-76
2024/01/20 07:13:40;;;;;;;;;30.67;25.00;;;;;7.98;42.69;102619.75;5011801;28;45367;-78
2024/01/20 07:16:12;;;;;;;;;26.67;24.33;;;;;8.01;42.56;102602.81;5035193;28;45253;-77
2024/01/20 07:18:41;;;;;;;;;27.00;23.00;;;;;8.00;42.54;102612.59;5034782;28;45371;-80
2024/01/20 07:21:07;;;;;;;;;20.67;20.00;;;;;8.01;42.46;102613.50;5035395;28;45532;-79
2024/01/20 07:23:33;;;;;;;;;32.67;25.67;;;;;8.17;42.77;102623.19;5035180;28;45230;-76
2024/01/20 07:25:58;;;;;;;;;28.00;22.33;;;;;7.98;42.57;102623.31;5016851;28;46135;-75
2024/01/20 07:28:24;;;;;;;;;24.00;20.67;;;;;8.04;42.94;102619.72;5034100;28;45998;-81
2024/01/20 07:30:50;;;;;;;;;30.33;26.33;;;;;8.17;42.82;102626.75;5034152;28;45190;-77
2024/01/20 07:33:15;;;;;;;;;34.33;29.33;;;;;8.26;42.24;102634.72;5032691;28;45371;-77
2024/01/20 07:35:40;;;;;;;;;38.33;27.00;;;;;8.34;42.11;102622.22;5033412;28;45458;-81
2024/01/20 07:38:06;;;;;;;;;30.00;27.00;;;;;8.33;42.40;102623.16;5023529;28;45396;-78
2024/01/20 07:40:31;;;;;;;;;33.00;28.67;;;;;8.39;42.48;102632.00;5025807;28;45232;-78
2024/01/20 07:42:56;;;;;;;;;24.33;22.33;;;;;8.28;42.09;102598.19;5029968;28;45378;-78
2024/01/20 07:45:22;;;;;;;;;25.67;23.00;;;;;8.47;42.07;102628.38;5032180;28;45397;-78
2024/01/20 07:47:47;;;;;;;;;29.67;27.67;;;;;8.40;41.90;102609.75;5032306;28;45328;-77
2024/01/20 07:50:13;;;;;;;;;33.00;27.33;;;;;8.48;41.67;102615.91;5014919;28;45397;-77
2024/01/20 07:52:38;;;;;;;;;32.67;21.33;;;;;8.39;42.05;102611.53;5032525;28;45930;-78
2024/01/20 07:55:04;;;;;;;;;33.67;26.67;;;;;8.48;41.36;102631.94;5034461;28;46122;-78
2024/01/20 07:57:30;;;;;;;;;28.33;26.00;;;;;8.46;42.03;102625.72;5037332;28;46004;-78
2024/01/20 07:59:55;;;;;;;;;30.33;23.00;;;;;8.48;41.65;102638.19;5033722;28;45578;-78
2024/01/20 08:02:20;;;;;;;;;42.33;30.33;;;;;8.46;42.10;102647.09;5032966;28;45435;-77
2024/01/20 08:04:46;;;;;;;;;32.33;28.33;;;;;8.47;41.66;102639.06;5033008;28;45573;-78
2024/01/20 08:07:11;;;;;;;;;27.33;25.00;;;;;8.50;41.75;102649.75;5032453;28;46451;-75
2024/01/20 08:09:37;;;;;;;;;31.67;28.33;;;;;8.53;42.14;102646.16;5032868;28;45341;-79
2024/01/20 08:12:02;;;;;;;;;33.33;30.33;;;;;8.58;41.64;102649.72;5014833;28;45475;-77
2024/01/20 08:14:28;;;;;;;;;32.00;30.00;;;;;8.43;41.75;102637.31;5032870;28;45185;-80
2024/01/20 08:16:53;;;;;;;;;37.67;23.67;;;;;8.40;41.93;102639.13;5032543;28;45333;-79
2024/01/20 08:19:19;;;;;;;;;30.33;26.00;;;;;8.41;41.84;102641.81;5032426;28;45288;-78
2024/01/20 08:21:44;;;;;;;;;29.67;29.67;;;;;8.41;42.11;102632.91;5032660;28;45208;-78
2024/01/20 08:24:09;;;;;;;;;29.00;27.67;;;;;8.46;41.98;102657.78;5014903;28;45336;-80
2024/01/20 08:26:36;;;;;;;;;34.33;30.33;;;;;8.57;42.24;102653.28;5031335;28;46610;-79
2024/01/20 08:29:01;;;;;;;;;37.67;29.00;;;;;8.54;41.75;102645.25;5032905;28;45225;-78
2024/01/20 08:31:27;;;;;;;;;39.00;32.67;;;;;8.53;41.53;102651.50;5004651;28;1131723;-79
2024/01/20 08:33:53;;;;;;;;;27.67;27.67;;;;;8.46;41.97;102639.97;5053843;28;45612;-81
2024/01/20 08:36:19;;;;;;;;;35.33;32.33;;;;;8.44;41.84;102627.50;5053952;28;46249;-79
2024/01/20 08:38:44;;;;;;;;;32.00;31.00;;;;;8.41;42.18;102614.19;5028128;28;45335;-80
2024/01/20 08:41:10;;;;;;;;;36.33;31.00;;;;;8.54;42.14;102648.81;5027511;28;45756;-78
2024/01/20 08:43:40;;;;;;;;;44.33;32.33;;;;;8.54;42.32;102648.81;5027167;28;45477;-72
2024/01/20 08:46:05;;;;;;;;;31.00;28.67;;;;;8.53;41.76;102641.69;5025574;28;47355;-76
2024/01/20 08:48:31;;;;;;;;;33.33;30.67;;;;;8.53;42.09;102643.47;5032437;28;45401;-76
2024/01/20 08:50:56;;;;;;;;;44.00;32.67;;;;;8.59;42.03;102652.34;5035632;28;45576;-77
2024/01/20 08:53:21;;;;;;;;;32.67;31.33;;;;;8.46;41.60;102634.63;5036455;28;55968;-77
2024/01/20 08:55:47;;;;;;;;;28.33;24.67;;;;;8.55;42.03;102645.25;5036311;28;59031;-75
2024/01/20 08:58:12;;;;;;;;;41.00;31.67;;;;;8.58;41.82;102647.91;5057143;28;45390;-77
2024/01/20 09:00:37;;;;;;;;;38.00;30.33;;;;;8.57;41.71;102655.94;5056823;28;45367;-80
2024/01/20 09:03:03;;;;;;;;;29.33;25.33;;;;;8.59;41.68;102662.19;5057357;28;52578;-77
2024/01/20 09:05:29;;;;;;;;;34.67;26.33;;;;;8.62;41.63;102654.13;5039312;28;45541;-77
2024/01/20 09:07:54;;;;;;;;;36.33;27.67;;;;;8.68;41.50;102662.06;5037726;28;45508;-76
2024/01/20 09:10:20;;;;;;;;;28.00;26.67;;;;;8.71;41.66;102646.91;5053150;28;45554;-77
2024/01/20 09:12:45;;;;;;;;;28.67;22.33;;;;;8.82;41.60;102646.84;5057063;28;45399;-76
2024/01/20 09:15:11;;;;;;;;;30.33;24.33;;;;;8.77;40.98;102643.28;5055816;28;46111;-79
2024/01/20 09:17:37;;;;;;;;;25.67;24.00;;;;;8.72;41.44;102643.34;5057114;28;45374;-78
2024/01/20 09:20:03;;;;;;;;;38.33;31.00;;;;;8.77;41.47;102651.31;5056635;28;45405;-78
2024/01/20 09:22:28;;;;;;;;;35.67;31.67;;;;;8.72;41.07;102632.66;5059701;28;45235;-77
2024/01/20 09:24:54;;;;;;;;;31.00;29.00;;;;;8.70;41.13;102626.41;5055130;28;45410;-77
2024/01/20 09:27:20;;;;;;;;;29.67;23.33;;;;;8.82;41.27;102643.28;5037088;28;45275;-76
2024/01/20 09:29:45;;;;;;;;;37.33;32.33;;;;;8.85;41.58;102638.75;5036499;28;45819;-78
2024/01/20 09:32:10;;;;;;;;;25.67;25.67;;;;;8.87;41.13;102628.06;5036447;28;45174;-77
2024/01/20 09:34:36;;;;;;;;;32.67;31.67;;;;;8.91;41.30;102633.38;5036471;28;46034;-76
2024/01/20 09:37:01;;;;;;;;;35.00;26.67;;;;;9.01;41.06;102636.88;5036362;28;45377;-74
2024/01/20 09:39:27;;;;;;;;;39.33;32.67;;;;;9.11;41.21;102627.81;5037761;28;45490;-75
2024/01/20 09:41:52;;;;;;;;;38.67;31.67;;;;;9.20;41.23;102638.44;5037984;28;45401;-77
2024/01/20 09:44:18;;;;;;;;;33.33;27.67;;;;;9.28;40.73;102635.69;5035254;28;45475;-78
2024/01/20 09:46:45;;;;;;;;;32.33;29.00;;;;;9.32;40.93;102635.66;5036441;28;45498;-77
2024/01/20 09:49:10;;;;;;;;;31.33;29.67;;;;;9.34;40.51;102620.47;5035846;28;45417;-78
2024/01/20 09:51:45;;;;;;;;;26.67;26.00;;;;;9.36;40.48;102607.94;5036323;28;45464;-76
2024/01/20 09:54:14;;;;;;;;;38.33;29.67;;;;;9.47;40.77;102635.47;5035877;28;46202;-74
2024/01/20 09:56:39;;;;;;;;;33.00;26.00;;;;;9.46;40.22;102627.47;5036083;28;45469;-73
2024/01/20 09:59:08;;;;;;;;;31.67;27.33;;;;;9.45;40.55;102631.03;5036167;28;45251;-72
2024/01/20 10:01:34;;;;;;;;;29.67;26.67;;;;;9.55;40.43;102623.78;5039264;28;45547;-74
2024/01/20 10:04:05;;;;;;;;;40.00;27.33;;;;;9.47;39.84;102611.38;5040710;28;45438;-73
2024/01/20 10:06:30;;;;;;;;;30.33;27.33;;;;;9.56;40.35;102621.09;5038718;28;45339;-75
2024/01/20 10:08:56;;;;;;;;;26.33;24.33;;;;;9.59;39.81;102623.75;5041059;28;52413;-74
2024/01/20 10:11:22;;;;;;;;;35.33;27.33;;;;;9.47;40.05;102613.16;5028460;28;46178;-74
2024/01/20 10:13:47;;;;;;;;;31.67;27.00;;;;;9.58;39.73;102629.13;5036090;28;46175;-76
2024/01/20 10:16:12;;;;;;;;;31.67;29.33;;;;;9.54;40.06;102611.31;5055666;28;45658;-75
2024/01/20 10:18:38;;;;;;;;;37.33;32.67;;;;;9.57;39.83;102606.81;5055344;28;45410;-76
2024/01/20 10:21:04;;;;;;;;;36.67;33.00;;;;;9.59;40.06;102596.97;5037592;28;46074;-75
2024/01/20 10:23:33;;;;;;;;;27.67;25.33;;;;;9.80;40.13;102601.16;5055570;28;46764;-74
2024/01/20 10:26:00;;;;;;;;;30.67;29.67;;;;;9.85;39.76;102618.97;5034249;28;45402;-73
2024/01/20 10:28:25;;;;;;;;;27.25;27.25;;;;;9.77;39.72;102609.25;5032828;28;45329;-74
2024/01/20 10:30:50;;;;;;;;;32.00;28.67;;;;;9.80;39.71;102617.22;5036624;28;46092;-74
2024/01/20 10:33:16;;;;;;;;;36.00;34.67;;;;;9.84;39.42;102614.50;5055722;28;45470;-75
2024/01/20 10:35:41;;;;;;;;;41.00;33.00;;;;;9.82;39.51;102610.97;5055831;28;52777;-75
2024/01/20 10:38:13;;;;;;;;;32.67;28.33;;;;;9.73;39.61;102591.44;5041960;28;46025;-75
2024/01/20 10:40:42;;;;;;;;;44.33;35.67;;;;;9.84;39.28;102618.97;5035651;28;45404;-74
2024/01/20 10:43:13;;;;;;;;;38.25;31.25;;;;;9.72;39.47;102616.44;5034922;28;45446;-76
2024/01/20 10:45:46;;;;;;;;;36.00;30.00;;;;;9.65;39.86;102612.97;5035390;28;45555;-77
2024/01/20 10:48:17;;;;;;;;;31.75;29.75;;;;;9.81;39.52;102619.00;5042839;28;45450;-77
2024/01/20 10:50:46;;;;;;;;;30.00;30.00;;;;;10.01;39.56;102618.75;5035946;28;45518;-75
2024/01/20 10:53:11;;;;;;;;;41.00;34.33;;;;;10.09;39.17;102622.22;5046432;28;45684;-77
2024/01/20 10:55:42;;;;;;;;;31.00;29.33;;;;;10.19;39.22;102621.22;5053315;28;46495;-75
2024/01/20 10:58:09;;;;;;;;;33.00;25.33;;;;;10.29;38.90;102620.19;5035313;28;45417;-74
2024/01/20 11:00:37;;;;;;;;;31.67;26.67;;;;;10.28;38.71;102605.00;5035054;28;45371;-76
2024/01/20 11:03:03;;;;;;;;;34.33;30.00;;;;;10.35;38.00;102613.81;5034831;28;45478;-78
2024/01/20 11:05:31;;;;;;;;;32.33;32.33;;;;;10.18;38.85;102620.31;5037860;28;45374;-76
2024/01/20 11:08:04;;;;;;;;;29.33;25.00;;;;;10.19;38.38;102614.06;5045197;28;45438;-78
2024/01/20 11:10:29;;;;;;;;;35.00;32.00;;;;;10.33;38.23;102604.91;5034717;28;46066;-73
2024/01/20 11:13:04;;;;;;;;;32.00;24.75;;;;;10.25;38.87;102594.31;5034655;28;46109;-77
2024/01/20 11:15:31;;;;;;;;;35.75;29.00;;;;;10.47;38.58;102603.78;5034288;28;45238;-75
2024/01/20 11:17:57;;;;;;;;;39.25;33.25;;;;;10.70;38.11;102587.34;5035007;28;45308;-78
2024/01/20 11:20:22;;;;;;;;;34.00;28.25;;;;;10.97;38.32;102586.81;5042024;28;45633;-76
2024/01/20 11:22:48;;;;;;;;;32.75;28.00;;;;;11.23;36.49;102598.88;5055445;28;45595;-75
2024/01/20 11:25:14;;;;;;;;;38.50;27.50;;;;;11.21;36.23;102580.13;5045504;28;45483;-74
2024/01/20 11:27:46;;;;;;;;;28.00;26.00;;;;;11.73;36.72;102598.78;5037171;28;45551;-77
2024/01/20 11:30:11;;;;;;;;;33.75;31.50;;;;;12.52;35.08;102593.38;5026245;28;45284;-77
2024/01/20 11:32:37;;;;;;;;;37.25;32.75;;;;;13.44;33.34;102552.34;5033429;28;47225;-79
2024/01/20 11:35:05;;;;;;;;;19.75;18.00;;;;;14.88;31.80;102576.56;5035236;28;45459;-79
2024/01/20 11:37:33;;;;;;;;;30.00;29.25;;;;;15.72;30.16;102554.59;5047608;28;45383;-82
2024/01/20 11:40:09;;;;;;;;;23.25;23.25;;;;;16.75;28.80;102560.34;5051302;28;46409;-77
2024/01/20 11:42:35;;;;;;;;;31.50;27.75;;;;;17.82;27.25;102557.28;5031472;28;46871;-82
2024/01/20 11:45:02;;;;;;;;;26.75;21.50;;;;;18.73;26.71;102569.06;5057335;28;45235;-81
2024/01/20 11:47:28;;;;;;;;;27.50;25.25;;;;;19.34;26.09;102551.38;5056209;28;45308;-79
2024/01/20 11:49:54;;;;;;;;;27.50;24.25;;;;;19.81;25.32;102543.38;5055505;28;45413;-81
2024/01/20 11:52:23;;;;;;;;;27.25;26.00;;;;;19.98;24.76;102552.34;5036514;28;47574;-80
2024/01/20 11:54:48;;;;;;;;;33.25;30.75;;;;;19.94;24.67;102548.03;5056217;28;45279;-80
2024/01/20 11:57:21;;;;;;;;;32.25;29.75;;;;;19.64;24.76;102541.59;5055382;28;45303;-78
2024/01/20 11:59:48;;;;;;;;;19.00;18.75;;;;;18.94;25.49;102528.16;5046641;28;45584;-78
2024/01/20 12:02:14;;;;;;;;;31.25;29.00;;;;;18.18;26.02;102543.78;5031483;28;45930;-77
2024/01/20 12:04:40;;;;;;;;;27.00;26.50;;;;;17.80;26.50;102539.31;5036982;28;45352;-75
2024/01/20 12:07:05;;;;;;;;;25.00;24.00;;;;;17.21;27.18;102514.00;5054200;28;45364;-74
2024/01/20 12:09:31;;;;;;;;;30.25;28.25;;;;;17.03;27.30;102528.34;5045964;28;45492;-76
2024/01/20 12:11:56;;;;;;;;;29.75;26.00;;;;;16.38;27.86;102528.47;5049132;28;45495;-75
2024/01/20 12:14:22;;;;;;;;;30.25;23.75;;;;;16.00;27.83;102530.91;5054016;28;45349;-76
2024/01/20 12:16:47;;;;;;;;;24.25;24.25;;;;;15.57;28.61;102511.94;5054203;28;45334;-75
2024/01/20 12:19:13;;;;;;;;;4.50;4.50;;;;;15.50;28.87;102533.72;5054308;28;45385;-76
2024/01/20 12:21:38;;;;;;;;;30.00;24.00;;;;;15.29;29.10;102531.84;5053807;28;45524;-75
2024/01/20 12:24:04;;;;;;;;;33.25;29.25;;;;;15.00;29.51;102529.31;5053871;28;45313;-75
2024/01/20 12:26:29;;;;;;;;;31.50;27.00;;;;;14.92;29.58;102529.59;5043219;28;45379;-75
2024/01/20 12:28:55;;;;;;;;;26.00;26.00;;;;;14.68;29.87;102490.84;5057280;28;53928;-75
2024/01/20 12:31:21;;;;;;;;;38.75;30.75;;;;;14.65;30.26;102493.63;5040947;28;45533;-75
2024/01/20 12:33:46;;;;;;;;;31.25;29.75;;;;;14.56;30.35;102506.56;5036095;28;45389;-74
2024/01/20 12:36:11;;;;;;;;;33.50;28.50;;;;;14.56;31.06;102511.97;5037307;28;45568;-75
2024/01/20 12:38:37;;;;;;;;;33.25;31.25;;;;;14.44;30.43;102502.50;5030175;28;45412;-74
2024/01/20 12:41:02;;;;;;;;;33.25;31.00;;;;;14.37;30.68;102495.50;5030839;28;45432;-75
2024/01/20 12:43:28;;;;;;;;;30.00;28.50;;;;;14.34;30.44;102509.97;5037393;28;45374;-76
2024/01/20 12:45:53;;;;;;;;;33.00;31.00;;;;;14.25;30.55;102506.69;5036915;28;45376;-75
2024/01/20 12:48:18;;;;;;;;;35.50;30.50;;;;;14.18;30.77;102489.84;5037134;28;45340;-75
2024/01/20 12:50:44;;;;;;;;;35.25;28.00;;;;;14.07;30.93;102496.50;5018892;28;47136;-75
2024/01/20 12:53:09;;;;;;;;;35.75;33.75;;;;;14.00;31.08;102483.22;5018808;28;52548;-75
2024/01/20 12:55:35;;;;;;;;;33.75;30.75;;;;;13.96;31.17;102462.69;5036944;28;45772;-75
2024/01/20 12:58:00;;;;;;;;;36.75;35.50;;;;;14.06;30.68;102473.16;5037068;28;45355;-79
2024/01/20 13:00:25;;;;;;;;;36.50;30.25;;;;;14.10;30.77;102469.44;5036545;28;45317;-78
2024/01/20 13:02:51;;;;;;;;;36.00;33.00;;;;;14.10;31.00;102453.28;5036885;28;45303;-75
2024/01/20 13:05:16;;;;;;;;;38.00;35.75;;;;;14.08;31.06;102436.25;5036739;28;45277;-76
2024/01/20 13:07:41;;;;;;;;;28.25;26.50;;;;;14.14;30.22;102453.09;5036287;28;53645;-75
2024/01/20 13:10:07;;;;;;;;;29.00;27.00;;;;;14.13;30.40;102455.84;5036304;28;56234;-76
2024/01/20 13:12:32;;;;;;;;;33.75;29.00;;;;;13.83;30.57;102428.09;5036585;28;45548;-76
2024/01/20 13:14:58;;;;;;;;;34.50;27.50;;;;;13.68;30.84;102450.16;5036330;28;45473;-76
2024/01/20 13:17:23;;;;;;;;;35.75;29.50;;;;;13.65;31.17;102443.03;5036517;28;45441;-75
2024/01/20 13:19:49;;;;;;;;;36.50;29.25;;;;;13.60;31.17;102442.31;5034974;28;52941;-77
2024/01/20 13:22:14;;;;;;;;;39.75;33.25;;;;;13.51;31.24;102438.09;5036418;28;45315;-75
2024/01/20 13:24:39;;;;;;;;;34.50;31.00;;;;;13.60;31.10;102440.50;5036644;28;45235;-74
2024/01/20 13:27:06;;;;;;;;;27.25;27.00;;;;;13.67;31.50;102432.22;5036274;28;45281;-75
2024/01/20 13:29:31;;;;;;;;;39.00;30.25;;;;;13.77;30.57;102436.38;5034133;28;45704;-73
2024/01/20 13:31:56;;;;;;;;;35.50;31.75;;;;;13.73;30.75;102440.09;5035694;28;45514;-75
2024/01/20 13:34:22;;;;;;;;;25.75;24.50;;;;;13.77;30.89;102445.34;5036681;28;45288;-76
2024/01/20 13:36:47;;;;;;;;;27.50;26.25;;;;;13.71;31.23;102420.38;5032243;28;48428;-73
2024/01/20 13:39:12;;;;;;;;;28.50;26.25;;;;;13.70;30.59;102419.50;5029025;28;46790;-74
2024/01/20 13:41:38;;;;;;;;;29.50;26.25;;;;;13.68;30.73;102429.47;5025418;28;52215;-75
2024/01/20 13:44:03;;;;;;;;;31.25;30.50;;;;;13.71;30.74;102421.28;5036586;28;45668;-75
2024/01/20 13:46:28;;;;;;;;;28.25;27.25;;;;;13.69;30.83;102420.47;5035959;28;45402;-74
2024/01/20 13:48:54;;;;;;;;;40.25;31.75;;;;;13.66;30.54;102408.88;5036169;28;45347;-75
2024/01/20 13:51:21;;;;;;;;;35.00;30.50;;;;;13.65;30.85;102402.59;5035705;28;45422;-74
2024/01/20 13:53:47;;;;;;;;;32.50;29.00;;;;;13.70;30.66;102410.53;5018706;28;45398;-74
2024/01/20 13:56:12;;;;;;;;;38.75;32.00;;;;;13.78;30.43;102413.91;5035935;28;45545;-75
2024/01/20 13:58:38;;;;;;;;;29.25;27.25;;;;;13.70;30.34;102419.50;5035857;28;46296;-76
2024/01/20 14:01:04;;;;;;;;;35.50;28.00;;;;;13.78;30.34;102403.09;5035277;28;45384;-74
2024/01/20 14:03:30;;;;;;;;;35.25;33.75;;;;;13.81;30.44;102414.66;5036021;28;45426;-75
2024/01/20 14:05:55;;;;;;;;;28.50;26.25;;;;;13.83;29.92;102418.19;5036488;28;45381;-75
2024/01/20 14:08:23;;;;;;;;;36.00;30.75;;;;;13.86;29.92;102406.44;5035923;28;45376;-75
2024/01/20 14:10:48;;;;;;;;;27.25;26.75;;;;;13.84;30.09;102417.25;5035534;28;45335;-74
2024/01/20 14:13:14;;;;;;;;;30.25;28.50;;;;;13.87;30.28;102395.56;5035894;28;45193;-75
2024/01/20 14:15:39;;;;;;;;;30.75;26.25;;;;;13.95;30.70;102400.75;5035217;28;45202;-75
2024/01/20 14:18:09;;;;;;;;;33.00;29.50;;;;;14.03;30.35;102413.00;5035717;28;45970;-74
2024/01/20 14:20:35;;;;;;;;;35.50;32.00;;;;;13.96;30.69;102391.69;5029883;28;45333;-74
2024/01/20 14:23:00;;;;;;;;;30.25;25.75;;;;;14.10;29.91;102399.31;5028634;28;45376;-74
2024/01/20 14:25:26;;;;;;;;;24.50;21.25;;;;;14.11;30.69;102410.06;5029376;28;45490;-74
2024/01/20 14:27:52;;;;;;;;;34.00;31.00;;;;;14.55;29.97;102413.91;5025610;28;55937;-73
2024/01/20 14:30:17;;;;;;;;;33.50;30.75;;;;;15.03;28.70;102395.03;5034976;28;45341;-74
2024/01/20 14:32:44;;;;;;;;;38.00;25.50;;;;;15.52;28.67;102399.41;5035487;28;45358;-72
2024/01/20 14:35:09;;;;;;;;;27.00;27.00;;;;;16.05;28.00;102374.69;5035042;28;45560;-74
2024/01/20 14:37:34;;;;;;;;;31.00;27.25;;;;;16.42;27.26;102368.53;5027972;28;46045;-75
2024/01/20 14:40:00;;;;;;;;;33.00;29.25;;;;;16.86;26.85;102380.09;5034982;28;45285;-73
2024/01/20 14:42:25;;;;;;;;;30.75;28.75;;;;;17.16;26.46;102372.41;5035620;28;45290;-75
2024/01/20 14:44:50;;;;;;;;;28.50;28.50;;;;;17.46;26.53;102377.28;5034779;28;45347;-73
2024/01/20 14:47:16;;;;;;;;;28.00;26.25;;;;;17.66;26.31;102366.38;5035119;28;52166;-71
2024/01/20 14:49:41;;;;;;;;;35.75;32.25;;;;;17.56;26.34;102368.63;5034867;28;50728;-72
2024/01/20 14:52:08;;;;;;;;;32.50;31.75;;;;;17.56;27.15;102365.91;5035174;28;45289;-69
2024/01/20 14:54:33;;;;;;;;;31.25;29.75;;;;;17.61;26.12;102358.41;5033560;28;47249;-71
2024/01/20 14:56:59;;;;;;;;;34.00;32.50;;;;;17.62;26.75;102362.03;5034999;28;46039;-70
2024/01/20 14:59:24;;;;;;;;;39.25;35.00;;;;;17.53;27.21;102338.94;5033283;28;45308;-71
2024/01/20 15:01:49;;;;;;;;;45.00;36.25;;;;;17.48;26.78;102322.03;5035073;28;45387;-75
2024/01/20 15:04:15;;;;;;;;;34.25;32.25;;;;;17.73;27.19;102354.25;5034649;28;45342;-71
2024/01/20 15:06:40;;;;;;;;;25.25;24.00;;;;;17.66;25.86;102350.09;5034744;28;45347;-72
2024/01/20 15:09:06;;;;;;;;;31.25;26.00;;;;;17.62;25.63;102337.63;5034266;28;45371;-70
2024/01/20 15:11:32;;;;;;;;;32.25;31.75;;;;;17.55;25.68;102333.44;5035121;28;45364;-73
2024/01/20 15:13:57;;;;;;;;;38.25;31.00;;;;;17.77;27.37;102350.44;5034447;28;45384;-73
2024/01/20 15:16:22;;;;;;;;;30.75;28.50;;;;;18.06;25.82;102336.25;5035312;28;47372;-72
2024/01/20 15:18:48;;;;;;;;;33.25;27.00;;;;;18.22;25.76;102346.31;5034531;28;45374;-76
2024/01/20 15:21:13;;;;;;;;;27.50;25.50;;;;;18.22;25.24;102341.75;5033948;28;45231;-71
2024/01/20 15:23:39;;;;;;;;;32.50;30.50;;;;;18.06;25.58;102333.53;5031758;28;45373;-71
2024/01/20 15:26:04;;;;;;;;;37.50;28.00;;;;;17.71;25.68;102316.34;5034050;28;46023;-71
2024/01/20 15:28:29;;;;;;;;;31.75;30.50;;;;;17.42;25.62;102335.91;5031969;28;45726;-71
2024/01/20 15:30:55;;;;;;;;;24.50;22.50;;;;;16.98;25.99;102328.06;5043807;28;47892;-71
2024/01/20 15:33:20;;;;;;;;;30.25;25.00;;;;;16.79;26.37;102337.13;5035111;28;52710;-71
2024/01/20 15:35:47;;;;;;;;;31.50;26.50;;;;;16.48;26.48;102311.44;5033546;28;56185;-70
2024/01/20 15:38:12;;;;;;;;;23.25;23.25;;;;;16.30;27.21;102325.81;5023434;28;45297;-71
2024/01/20 15:40:38;;;;;;;;;25.25;23.25;;;;;16.04;27.78;102336.88;5026719;28;45539;-71
2024/01/20 15:43:03;;;;;;;;;26.25;26.00;;;;;15.88;27.84;102351.06;5032023;28;45483;-71
2024/01/20 15:45:28;;;;;;;;;24.75;24.75;;;;;15.66;28.31;102350.19;5034229;28;45536;-71
2024/01/20 15:47:54;;;;;;;;;28.00;25.75;;;;;15.50;28.57;102343.63;5034242;28;45335;-71
2024/01/20 15:50:19;;;;;;;;;32.25;28.00;;;;;15.28;28.48;102331.94;5033264;28;45310;-72
2024/01/20 15:52:45;;;;;;;;;32.75;28.25;;;;;15.10;28.44;102336.25;5033930;28;45288;-69
2024/01/20 15:55:10;;;;;;;;;26.75;25.25;;;;;14.99;29.11;102338.47;5033768;28;62237;-73
2024/01/20 15:57:36;;;;;;;;;27.00;25.75;;;;;14.76;29.08;102328.56;5030823;28;45398;-72
2024/01/20 16:00:02;;;;;;;;;30.00;27.00;;;;;14.68;29.41;102341.50;5033659;28;45280;-72
2024/01/20 16:02:28;;;;;;;;;28.50;26.50;;;;;14.58;29.83;102338.25;5034074;28;45560;-71
2024/01/20 16:04:53;;;;;;;;;39.50;30.75;;;;;14.48;29.65;102334.13;5034069;28;45467;-72
2024/01/20 16:07:18;;;;;;;;;32.50;28.00;;;;;14.37;30.43;102325.53;5033730;28;45341;-75